createdAt,value
2019-04-30T00:01:25.713Z,20.45
2019-04-30T00:06:34.506Z,20.44
2019-04-30T00:11:36.303Z,20.45
2019-04-30T00:16:40.070Z,20.41
2019-04-30T00:21:50.026Z,20.41
2019-04-30T00:26:52.437Z,20.31
2019-04-30T00:31:59.262Z,20.36
2019-04-30T00:36:59.837Z,20.49
2019-04-30T00:42:04.939Z,21.02
2019-04-30T00:47:08.799Z,21.79
2019-04-30T00:52:12.664Z,22.22
2019-04-30T00:57:16.212Z,22.38
2019-04-30T01:02:31.701Z,22.31
2019-04-30T01:07:32.417Z,22.31
2019-04-30T01:12:43.728Z,22.08
2019-04-30T01:17:45.331Z,22.01
2019-04-30T01:22:48.582Z,21.83
2019-04-30T01:27:52.079Z,21.70
2019-04-30T01:32:56.956Z,21.48
2019-04-30T01:38:04.083Z,21.28
2019-04-30T01:43:06.243Z,21.09
2019-04-30T01:48:12.794Z,20.91
2019-04-30T01:53:15.115Z,20.80
2019-04-30T01:58:20.295Z,20.73
2019-04-30T02:03:23.861Z,20.63
2019-04-30T02:08:29.388Z,20.51
2019-04-30T02:13:34.511Z,20.45
2019-04-30T02:18:39.420Z,20.37
2019-04-30T02:23:43.122Z,20.29
2019-04-30T02:28:46.718Z,20.24
2019-04-30T02:33:51.838Z,20.23
2019-04-30T02:39:02.286Z,20.20
2019-04-30T02:44:02.415Z,20.15
2019-04-30T02:49:06.563Z,20.04
2019-04-30T02:54:12.268Z,20.04
2019-04-30T02:59:15.860Z,20.11
2019-04-30T03:04:19.788Z,20.44
2019-04-30T03:09:23.446Z,21.29
2019-04-30T03:14:27.050Z,22.05
2019-04-30T03:19:50.047Z,21.98
2019-04-30T03:24:52.809Z,21.85
2019-04-30T03:29:56.371Z,21.74
2019-04-30T03:35:03.118Z,21.68
2019-04-30T03:40:12.700Z,21.43
2019-04-30T03:45:12.903Z,21.26
2019-04-30T03:50:19.597Z,21.16
2019-04-30T03:55:24.996Z,20.94
2019-04-30T04:00:46.585Z,20.76
2019-04-30T04:06:09.392Z,20.59
2019-04-30T04:11:14.443Z,20.48
2019-04-30T04:16:19.449Z,20.41
2019-04-30T04:21:23.262Z,20.33
2019-04-30T04:26:26.818Z,20.26
2019-04-30T04:31:30.390Z,20.26
2019-04-30T04:36:34.183Z,20.21
2019-04-30T04:41:39.948Z,20.16
2019-04-30T04:46:43.059Z,20.05
2019-04-30T04:51:49.177Z,20.02
2019-04-30T04:56:53.410Z,19.98
2019-04-30T05:01:57.176Z,19.95
2019-04-30T05:07:00.748Z,19.92
2019-04-30T05:12:05.059Z,19.86
2019-04-30T05:17:09.826Z,19.87
2019-04-30T05:22:13.565Z,19.89
2019-04-30T05:27:17.126Z,19.93
2019-04-30T05:32:20.708Z,20.09
2019-04-30T05:37:24.253Z,20.65
2019-04-30T05:42:28.546Z,21.45
2019-04-30T05:47:32.283Z,22.18
2019-04-30T05:52:35.855Z,22.52
2019-04-30T05:57:52.555Z,22.54
2019-04-30T06:02:44.754Z,22.42
2019-04-30T06:07:51.664Z,22.92
2019-04-30T06:12:55.620Z,22.86
2019-04-30T06:18:02.891Z,22.04
2019-04-30T06:23:05.296Z,21.72
2019-04-30T06:28:09.688Z,21.64
2019-04-30T06:33:13.528Z,21.80
2019-04-30T06:38:18.519Z,21.70
2019-04-30T06:43:22.549Z,21.68
2019-04-30T06:48:26.097Z,21.75
2019-04-30T06:53:29.695Z,21.73
2019-04-30T06:58:33.238Z,21.76
2019-04-30T07:03:38.777Z,21.78
2019-04-30T07:09:02.080Z,21.87
2019-04-30T07:14:05.629Z,21.87
2019-04-30T07:19:09.647Z,21.84
2019-04-30T07:24:13.218Z,22.02
2019-04-30T07:29:16.818Z,22.06
2019-04-30T07:34:20.393Z,22.09
2019-04-30T07:39:29.285Z,22.11
2019-04-30T07:44:36.211Z,22.14
2019-04-30T07:49:46.882Z,22.12
2019-04-30T07:54:39.832Z,22.09
2019-04-30T07:59:43.400Z,22.11
2019-04-30T08:04:50.938Z,22.09
2019-04-30T08:10:03.120Z,22.04
2019-04-30T08:15:09.581Z,21.98
2019-04-30T08:20:15.799Z,21.99
2019-04-30T08:25:21.282Z,21.89
2019-04-30T08:30:26.670Z,21.90
2019-04-30T08:35:29.658Z,21.94
2019-04-30T08:40:33.398Z,21.95
2019-04-30T08:45:38.592Z,22.05
2019-04-30T08:50:42.245Z,22.20
2019-04-30T08:55:46.012Z,22.51
2019-04-30T09:00:49.566Z,23.16
2019-04-30T09:05:54.737Z,23.09
2019-04-30T09:10:59.507Z,22.92
2019-04-30T09:16:03.370Z,23.04
2019-04-30T09:21:08.864Z,22.94
2019-04-30T09:26:13.062Z,22.70
2019-04-30T09:31:16.613Z,22.69
2019-04-30T09:36:20.858Z,22.52
2019-04-30T09:41:24.633Z,22.59
2019-04-30T09:46:29.930Z,22.53
2019-04-30T09:51:34.009Z,22.47
2019-04-30T09:56:39.322Z,22.36
2019-04-30T10:01:42.994Z,22.13
2019-04-30T10:06:49.926Z,22.15
2019-04-30T10:11:59.665Z,22.35
2019-04-30T10:17:20.141Z,22.16
2019-04-30T10:22:23.776Z,22.07
2019-04-30T10:27:29.363Z,21.96
2019-04-30T10:32:32.655Z,21.91
2019-04-30T10:37:36.227Z,21.89
2019-04-30T10:42:39.802Z,21.80
2019-04-30T10:47:43.472Z,21.81
2019-04-30T10:52:49.060Z,21.79
2019-04-30T10:57:52.351Z,21.75
2019-04-30T11:02:55.906Z,21.78
2019-04-30T11:07:59.602Z,21.82
2019-04-30T11:13:03.130Z,21.83
2019-04-30T11:18:06.959Z,21.89
2019-04-30T11:23:14.638Z,21.88
2019-04-30T11:28:16.663Z,21.97
2019-04-30T11:33:20.946Z,21.99
2019-04-30T11:38:24.728Z,22.01
2019-04-30T11:43:29.474Z,22.04
2019-04-30T11:48:33.042Z,22.08
2019-04-30T11:53:36.641Z,22.11
2019-04-30T11:58:40.241Z,22.10
2019-04-30T12:03:43.873Z,22.15
2019-04-30T12:09:01.104Z,22.08
2019-04-30T12:14:06.082Z,22.12
2019-04-30T12:19:09.824Z,22.10
2019-04-30T12:24:13.507Z,22.11
2019-04-30T12:29:19.122Z,22.14
2019-04-30T12:34:22.855Z,22.12
2019-04-30T12:39:29.791Z,22.15
2019-04-30T12:44:31.745Z,22.15
2019-04-30T12:49:45.708Z,22.22
2019-04-30T12:54:50.913Z,22.36
2019-04-30T12:59:54.552Z,20.21
2019-04-30T13:05:00.308Z,20.09
2019-04-30T13:10:04.241Z,19.83
2019-04-30T13:15:09.488Z,19.85
2019-04-30T13:20:20.966Z,19.95
2019-04-30T13:25:30.336Z,19.94
2019-04-30T13:30:26.936Z,20.10
2019-04-30T13:35:30.565Z,19.99
2019-04-30T13:40:41.460Z,20.01
2019-04-30T13:45:45.026Z,19.66
2019-04-30T13:50:48.855Z,20.10
2019-04-30T13:55:52.989Z,20.05
2019-04-30T14:00:57.101Z,20.41
2019-04-30T14:06:00.880Z,20.05
2019-04-30T14:11:06.001Z,19.95
2019-04-30T14:16:10.508Z,19.90
2019-04-30T14:21:14.163Z,20.69
2019-04-30T14:26:19.380Z,20.68
2019-04-30T14:31:23.116Z,20.30
2019-04-30T14:36:26.694Z,20.34
2019-04-30T14:41:32.510Z,20.13
2019-04-30T14:46:54.194Z,20.11
2019-04-30T14:51:59.556Z,20.28
2019-04-30T14:57:17.137Z,20.22
2019-04-30T15:02:22.343Z,20.45
2019-04-30T15:07:26.290Z,19.97
2019-04-30T15:12:30.050Z,19.92
2019-04-30T15:17:33.609Z,19.79
2019-04-30T15:22:38.972Z,19.62
2019-04-30T15:27:45.219Z,19.63
2019-04-30T15:32:50.100Z,19.40
2019-04-30T15:37:55.258Z,19.43
2019-04-30T15:43:02.416Z,19.34
2019-04-30T15:48:05.756Z,19.28
2019-04-30T15:53:09.505Z,19.20
2019-04-30T15:58:14.651Z,19.22
2019-04-30T16:03:19.811Z,19.15
2019-04-30T16:08:30.813Z,19.15
2019-04-30T16:13:39.533Z,19.13
2019-04-30T16:18:49.378Z,19.08
2019-04-30T16:23:53.239Z,18.96
2019-04-30T16:28:58.505Z,18.84
2019-04-30T16:34:02.394Z,18.82
2019-04-30T16:39:08.750Z,18.68
2019-04-30T16:44:30.895Z,18.67
2019-04-30T16:49:34.513Z,18.59
2019-04-30T16:54:39.527Z,18.43
2019-04-30T16:59:43.269Z,18.36
2019-04-30T17:04:53.932Z,18.24
2019-04-30T17:10:01.845Z,18.09
2019-04-30T17:15:19.264Z,18.01
2019-04-30T17:20:22.993Z,18.06
2019-04-30T17:25:26.575Z,17.78
2019-04-30T17:30:30.273Z,17.73
2019-04-30T17:35:33.821Z,17.50
2019-04-30T17:40:38.947Z,17.40
2019-04-30T17:45:43.052Z,17.20
2019-04-30T17:50:46.703Z,17.13
2019-04-30T17:55:50.371Z,16.98
2019-04-30T18:00:55.541Z,16.93
2019-04-30T18:05:59.294Z,16.74
2019-04-30T18:11:02.953Z,16.62
2019-04-30T18:16:06.524Z,16.56
2019-04-30T18:21:28.202Z,16.34
2019-04-30T18:26:32.675Z,16.24
2019-04-30T18:31:36.507Z,16.19
2019-04-30T18:36:40.102Z,16.01
2019-04-30T18:41:43.738Z,16.09
2019-04-30T18:46:49.093Z,16.34
2019-04-30T18:51:52.774Z,16.44
2019-04-30T18:56:56.371Z,16.26
2019-04-30T19:01:59.925Z,16.13
2019-04-30T19:07:05.110Z,16.20
2019-04-30T19:12:11.206Z,16.24
2019-04-30T19:17:32.790Z,16.32
2019-04-30T19:22:36.500Z,16.08
2019-04-30T19:27:40.139Z,16.07
2019-04-30T19:32:43.763Z,15.98
2019-04-30T19:37:48.676Z,15.99
2019-04-30T19:42:52.594Z,15.99
2019-04-30T19:47:56.194Z,15.99
2019-04-30T19:52:59.756Z,15.97
2019-04-30T19:58:03.688Z,15.94
2019-04-30T20:03:08.849Z,15.88
2019-04-30T20:08:12.707Z,15.86
2019-04-30T20:13:30.893Z,15.79
2019-04-30T20:18:21.585Z,15.72
2019-04-30T20:23:25.247Z,15.68
2019-04-30T20:28:38.896Z,15.67
2019-04-30T20:33:34.135Z,15.61
2019-04-30T20:38:39.313Z,15.47
2019-04-30T20:43:42.861Z,15.40
2019-04-30T20:48:46.422Z,15.35
2019-04-30T20:53:50.000Z,15.30
2019-04-30T20:58:57.364Z,15.17
2019-04-30T21:03:58.870Z,14.97
2019-04-30T21:09:02.484Z,14.78
2019-04-30T21:14:06.026Z,14.66
2019-04-30T21:19:09.604Z,14.56
2019-04-30T21:24:13.211Z,14.40
2019-04-30T21:29:18.749Z,14.28
2019-04-30T21:34:39.864Z,14.18
2019-04-30T21:39:43.765Z,14.08
2019-04-30T21:44:47.313Z,13.96
2019-04-30T21:49:50.913Z,13.91
2019-04-30T21:54:54.496Z,13.76
2019-04-30T21:59:58.794Z,13.69
2019-04-30T22:05:02.441Z,13.60
2019-04-30T22:10:07.307Z,13.53
2019-04-30T22:15:12.447Z,13.38
2019-04-30T22:20:16.018Z,13.31
2019-04-30T22:25:19.588Z,13.27
2019-04-30T22:30:23.196Z,13.25
2019-04-30T22:35:28.557Z,13.25
2019-04-30T22:40:32.200Z,13.18
2019-04-30T22:45:49.973Z,13.21
2019-04-30T22:50:53.551Z,13.01
2019-04-30T22:55:57.126Z,13.01
2019-04-30T23:01:11.091Z,12.94
2019-04-30T23:06:14.674Z,12.77
2019-04-30T23:11:18.282Z,12.75
2019-04-30T23:16:21.828Z,12.57
2019-04-30T23:21:25.436Z,12.53
2019-04-30T23:26:29.053Z,12.36
2019-04-30T23:31:32.770Z,12.25
2019-04-30T23:36:36.327Z,12.22
2019-04-30T23:41:39.927Z,12.13
2019-04-30T23:46:43.484Z,12.01
2019-04-30T23:51:47.046Z,11.94
2019-04-30T23:56:50.755Z,11.81
